Wilbur Observed Data For Previous 48 Hours

Caption
Day and Hour Reservoir Elevation (behind dam)* Tailwater Elevation (below dam)* Average Hourly Discharge*
3/22/2019 2 AM EDT 1,648.14 1,583.36 258
3/22/2019 3 AM EDT 1,647.82 1,583.34 239
3/22/2019 4 AM EDT 1,647.43 1,583.33 235
3/22/2019 5 AM EDT 1,647.08 1,583.32 232
3/22/2019 6 AM EDT 1,646.72 1,583.31 229
3/22/2019 7 AM EDT 1,647.76 1,584.16 232
3/22/2019 8 AM EDT 1,647.09 1,585.77 1,683
3/22/2019 9 AM EDT 1,646.44 1,585.64 1,648
3/22/2019 10 AM EDT 1,645.94 1,585.62 1,635
3/22/2019 11 AM EDT 1,645.58 1,585.58 1,628
3/22/2019 12 PM EDT 1,645.21 1,585.53 1,626
3/22/2019 1 PM EDT 1,645.05 1,583.15 232
3/22/2019 2 PM EDT 1,644.71 1,583.14 210
3/22/2019 3 PM EDT 1,644.33 1,583.11 206
3/22/2019 4 PM EDT 1,643.95 1,583.11 202
3/22/2019 5 PM EDT 1,643.58 1,583.09 198
3/22/2019 6 PM EDT 1,644.76 1,583.14 202
3/22/2019 7 PM EDT 1,646.10 1,583.20 215
3/22/2019 8 PM EDT 1,647.30 1,584.09 227
3/22/2019 9 PM EDT 1,647.09 1,585.50 1,568
3/22/2019 10 PM EDT 1,646.80 1,585.50 1,615
3/22/2019 11 PM EDT 1,646.53 1,585.63 1,624
3/23/2019 12 AM EDT 1,648.08 1,583.34 256
3/23/2019 1 AM EDT 1,649.50 1,583.39 245
3/23/2019 2 AM EDT 1,649.31 1,583.41 250
3/23/2019 3 AM EDT 1,648.94 1,583.44 249
3/23/2019 4 AM EDT 1,648.56 1,583.44 245
3/23/2019 5 AM EDT 1,648.21 1,583.45 241
3/23/2019 6 AM EDT 1,647.87 1,583.44 240
3/23/2019 7 AM EDT 1,647.52 1,583.48 235
3/23/2019 8 AM EDT 1,648.48 1,583.54 238
3/23/2019 9 AM EDT 1,649.64 1,583.52 248
3/23/2019 10 AM EDT 1,649.23 1,584.09 794
3/23/2019 11 AM EDT 1,648.90 1,583.28 248
3/23/2019 12 PM EDT 1,648.52 1,583.27 245
3/23/2019 1 PM EDT 1,648.17 1,583.25 241
3/23/2019 2 PM EDT 1,647.83 1,583.25 239
3/23/2019 3 PM EDT 1,647.48 1,583.24 235
3/23/2019 4 PM EDT 1,647.11 1,583.23 232
3/23/2019 5 PM EDT 1,646.77 1,583.22 230
3/23/2019 6 PM EDT 1,646.41 1,583.20 225
3/23/2019 7 PM EDT 1,646.04 1,583.18 223
3/23/2019 8 PM EDT 1,645.68 1,583.18 220
3/23/2019 9 PM EDT 1,646.81 1,583.25 223
3/23/2019 10 PM EDT 1,648.07 1,583.32 234
3/23/2019 11 PM EDT 1,647.82 1,583.31 239
3/24/2019 12 AM EDT 1,647.50 1,583.30 235
3/24/2019 1 AM EDT 1,647.13 1,583.29 232

Elevations are in feet above sea level. Discharges are in cubic feet per second and are reported at the end of the hour.